Time;durP1;ratioP1;P1;durP2;ratioP2;P2;SDS_P1;SDS_P2;PMS_P1;PMS_P2;Temp;Humidity;BMP_temperature;BMP_pressure;BME280_temperature;BME280_humidity;BME280_pressure;Samples;Min_cycle;Max_cycle;Signal;HPM_P1;HPM_P2
2021/11/20 00:00:37;;;;;;;12.52;4.63;;;;;;;9.60;95.47;103014.59;5013908;28;20026;-77
2021/11/20 00:03:04;;;;;;;9.43;5.28;;;;;;;9.58;96.14;103013.81;5014276;28;20030;-78
2021/11/20 00:05:34;;;;;;;12.20;6.85;;;;;;;9.58;95.74;103031.56;5013869;28;20038;-77
2021/11/20 00:08:00;;;;;;;8.65;5.85;;;;;;;9.58;95.56;103015.59;5014246;28;20036;-77
2021/11/20 00:10:30;;;;;;;9.93;5.93;;;;;;;9.59;95.12;102996.06;5012515;28;20422;-77
2021/11/20 00:12:56;;;;;;;11.15;6.15;;;;;;;9.58;95.69;102999.66;5014160;28;20482;-77
2021/11/20 00:15:27;;;;;;;8.93;6.15;;;;;;;9.62;95.35;103009.19;5013608;28;20030;-77
2021/11/20 00:17:53;;;;;;;9.02;5.68;;;;;;;9.61;95.35;103013.63;5014164;28;20022;-77
2021/11/20 00:20:21;;;;;;;8.90;6.63;;;;;;;9.62;95.12;103001.22;5014007;28;20044;-78
2021/11/20 00:22:49;;;;;;;8.60;6.38;;;;;;;9.61;95.66;102991.53;5012607;28;20382;-78
2021/11/20 00:25:23;;;;;;;13.13;7.30;;;;;;;9.59;95.39;102998.72;5013980;28;20041;-77
2021/11/20 00:27:53;;;;;;;9.15;6.70;;;;;;;9.59;95.44;102999.59;5014006;28;20033;-77
2021/11/20 00:30:23;;;;;;;8.70;7.00;;;;;;;9.58;95.48;102997.00;5013646;28;20040;-77
2021/11/20 00:33:04;;;;;;;12.65;7.20;;;;;;;9.55;95.53;102992.69;5014045;28;20034;-76
2021/11/20 00:35:35;;;;;;;16.52;7.07;;;;;;;9.56;95.51;103002.41;5012280;28;20080;-79
2021/11/20 00:38:02;;;;;;;12.00;6.88;;;;;;;9.57;94.88;102995.28;5013913;28;20486;-79
2021/11/20 00:40:44;;;;;;;10.48;7.20;;;;;;;9.56;94.70;102989.13;5013595;28;20478;-79
2021/11/20 00:43:10;;;;;;;19.08;7.97;;;;;;;9.53;95.10;102989.28;5013607;28;20033;-77
2021/11/20 00:45:36;;;;;;;10.00;7.15;;;;;;;9.54;94.93;102996.31;5013613;28;20029;-79
2021/11/20 00:48:05;;;;;;;12.27;6.75;;;;;;;9.57;94.46;102985.53;5013261;28;20137;-79
2021/11/20 00:50:31;;;;;;;9.70;7.18;;;;;;;9.55;94.01;102975.91;5013369;28;20022;-76
2021/11/20 00:52:56;;;;;;;12.90;7.50;;;;;;;9.50;94.39;102979.66;5013682;28;20037;-79
2021/11/20 00:55:26;;;;;;;9.73;7.15;;;;;;;9.48;94.53;102992.19;5013277;28;20038;-79
2021/11/20 00:57:53;;;;;;;12.38;8.65;;;;;;;9.45;94.79;102989.69;5013219;28;20052;-77
2021/11/20 01:00:22;;;;;;;10.20;7.68;;;;;;;9.45;94.58;102973.72;5011945;28;20065;-78
2021/11/20 01:02:47;;;;;;;13.38;8.55;;;;;;;9.46;94.08;102980.75;5012969;28;20026;-78
2021/11/20 01:05:14;;;;;;;15.52;9.18;;;;;;;9.46;93.70;102983.41;5013324;28;20045;-78
2021/11/20 01:07:40;;;;;;;10.30;8.73;;;;;;;9.44;93.78;102976.47;5012783;28;20422;-78
2021/11/20 01:10:10;;;;;;;15.68;9.05;;;;;;;9.45;93.68;102975.50;5013298;28;20060;-78
2021/11/20 01:12:36;;;;;;;14.38;9.63;;;;;;;9.43;94.02;102983.56;5012755;28;20100;-77
2021/11/20 01:15:04;;;;;;;12.75;9.32;;;;;;;9.42;93.74;102981.00;5012801;28;20029;-77
2021/11/20 01:17:31;;;;;;;12.25;9.35;;;;;;;9.44;93.75;102976.47;5012809;28;20065;-78
2021/11/20 01:19:59;;;;;;;13.00;9.10;;;;;;;9.42;93.44;102971.25;5012877;28;20497;-77
2021/11/20 01:22:27;;;;;;;13.25;10.02;;;;;;;9.39;93.37;102976.72;5012858;28;20044;-77
2021/11/20 01:24:55;;;;;;;13.25;10.13;;;;;;;9.37;94.14;102977.72;5038961;22;20493;-76
2021/11/20 01:27:24;;;;;;;15.20;10.05;;;;;;;9.34;94.39;102973.41;5061064;22;20121;-77
2021/11/20 01:29:51;;;;;;;14.70;10.70;;;;;;;9.33;94.11;102972.56;5046609;22;20059;-78
2021/11/20 01:32:17;;;;;;;13.38;10.45;;;;;;;9.34;93.57;102968.09;5047508;22;20049;-78
2021/11/20 01:34:45;;;;;;;15.98;10.68;;;;;;;9.30;93.21;102970.06;5032268;28;20032;-77
2021/11/20 01:37:14;;;;;;;17.20;11.07;;;;;;;9.29;93.64;102975.47;5031190;28;20107;-78
2021/11/20 01:39:42;;;;;;;13.48;10.70;;;;;;;9.27;93.50;102970.22;5032091;28;20037;-78
2021/11/20 01:42:13;;;;;;;13.77;10.88;;;;;;;9.26;93.80;102968.50;5032337;28;20029;-78
2021/11/20 01:44:46;;;;;;;13.82;11.32;;;;;;;9.29;93.16;102959.53;5032104;28;20116;-78
2021/11/20 01:47:51;;;;;;;15.05;11.07;;;;;;;9.30;92.87;102950.59;5032076;28;20105;-76
2021/11/20 01:50:30;;;;;;;13.77;11.38;;;;;;;9.31;92.80;102960.28;4991258;28;20048;-76
2021/11/20 01:53:11;;;;;;;19.30;12.52;;;;;;;9.32;92.83;102964.69;5032535;28;20032;-77
2021/11/20 01:55:50;;;;;;;19.15;12.30;;;;;;;9.30;92.95;102958.56;5031893;28;20034;-78
2021/11/20 01:58:31;;;;;;;17.33;12.38;;;;;;;9.27;93.14;102951.63;5032411;28;20028;-77
2021/11/20 02:01:25;;;;;;;20.38;13.50;;;;;;;9.24;93.11;102948.25;5032327;28;20361;-78
2021/11/20 02:04:08;;;;;;;18.50;12.13;;;;;;;9.25;93.20;102940.22;5030596;28;20354;-76
2021/11/20 02:06:47;;;;;;;18.98;13.43;;;;;;;9.23;93.40;102934.13;5031907;28;20029;-80
2021/11/20 02:09:48;;;;;;;21.38;13.05;;;;;;;9.22;93.14;102937.72;5030910;28;20072;-76
2021/11/20 02:12:33;;;;;;;16.98;11.75;;;;;;;9.24;92.83;102950.91;5012617;28;20042;-79
2021/11/20 02:14:58;;;;;;;19.35;11.98;;;;;;;9.23;92.76;102944.75;5032155;28;20469;-78
2021/11/20 02:17:44;;;;;;;16.85;12.25;;;;;;;9.25;92.26;102948.19;5032012;28;20034;-77
2021/11/20 02:20:23;;;;;;;18.92;12.25;;;;;;;9.24;92.55;102943.81;5032330;28;20036;-77
2021/11/20 02:22:48;;;;;;;16.73;11.93;;;;;;;9.22;92.51;102932.41;5031615;28;20444;-77
2021/11/20 02:25:13;;;;;;;21.53;12.53;;;;;;;9.22;92.35;102929.75;5032115;28;20074;-77
2021/11/20 02:27:43;;;;;;;22.10;11.63;;;;;;;9.21;92.44;102933.34;5031692;28;20280;-78
2021/11/20 02:30:17;;;;;;;19.38;11.90;;;;;;;9.24;91.52;102934.97;5032031;28;20055;-77
2021/11/20 02:32:44;;;;;;;18.80;11.65;;;;;;;9.21;92.04;102940.44;5030160;28;20052;-77
2021/11/20 02:35:13;;;;;;;18.85;12.70;;;;;;;9.23;91.37;102933.28;5031749;28;20485;-77
2021/11/20 02:37:40;;;;;;;19.10;12.32;;;;;;;9.28;90.91;102933.88;5031674;28;20029;-77
2021/11/20 02:40:08;;;;;;;16.27;11.60;;;;;;;9.28;90.88;102923.25;5032108;28;20038;-77
2021/11/20 02:42:33;;;;;;;16.73;11.90;;;;;;;9.25;90.96;102918.09;5031781;28;20115;-78
2021/11/20 02:44:59;;;;;;;18.00;11.98;;;;;;;9.22;91.05;102919.13;5031386;28;20080;-77
2021/11/20 02:47:29;;;;;;;16.08;11.00;;;;;;;9.19;91.87;102919.28;5032074;28;20033;-78
2021/11/20 02:49:54;;;;;;;17.20;11.75;;;;;;;9.15;92.45;102923.91;5031797;28;20025;-78
2021/11/20 02:52:22;;;;;;;19.05;11.93;;;;;;;9.14;92.05;102921.31;5031950;28;20033;-78
2021/11/20 02:54:48;;;;;;;15.75;10.68;;;;;;;9.15;91.69;102917.72;5031202;28;20493;-78
2021/11/20 02:57:29;;;;;;;18.38;10.77;;;;;;;9.16;91.23;102908.81;5031616;28;20025;-78
2021/11/20 02:59:55;;;;;;;16.17;11.13;;;;;;;9.19;91.21;102906.00;5034964;28;20090;-76
2021/11/20 03:02:21;;;;;;;16.08;11.75;;;;;;;9.17;91.44;102903.41;5035534;28;20470;-76
2021/11/20 03:04:47;;;;;;;13.95;10.35;;;;;;;9.16;91.80;102904.34;5034764;28;20033;-76
2021/11/20 03:07:13;;;;;;;17.90;10.93;;;;;;;9.14;91.91;102903.59;5035204;28;20026;-78
2021/11/20 03:09:39;;;;;;;14.95;11.30;;;;;;;9.10;92.28;102896.72;5035106;28;20470;-78
2021/11/20 03:12:09;;;;;;;16.17;10.90;;;;;;;9.10;91.95;102899.38;5033681;28;20124;-77
2021/11/20 03:14:35;;;;;;;15.80;11.10;;;;;;;9.13;91.47;102885.91;5035007;28;20029;-78
2021/11/20 03:17:03;;;;;;;15.15;10.63;;;;;;;9.16;90.75;102884.91;5034488;28;20278;-76
2021/11/20 03:19:32;;;;;;;13.18;9.75;;;;;;;9.16;90.89;102896.38;5034931;28;20036;-79
2021/11/20 03:22:05;;;;;;;15.55;10.75;;;;;;;9.15;91.32;102894.69;5034576;28;20426;-79
2021/11/20 03:24:31;;;;;;;13.63;10.73;;;;;;;9.13;91.32;102895.69;5034840;28;20091;-76
2021/11/20 03:26:57;;;;;;;18.25;10.82;;;;;;;9.08;91.92;102884.47;5032777;28;20064;-76
2021/11/20 03:29:25;;;;;;;18.83;11.48;;;;;;;9.09;91.63;102883.50;5034805;28;20069;-76
2021/11/20 03:31:52;;;;;;;13.02;9.77;;;;;;;9.08;91.46;102885.31;5032827;28;20113;-76
2021/11/20 03:34:21;;;;;;;14.27;10.65;;;;;;;9.05;91.90;102885.47;5034660;28;20044;-76
2021/11/20 03:36:47;;;;;;;18.90;12.98;;;;;;;9.04;91.77;102875.78;5034155;28;20129;-76
2021/11/20 03:39:12;;;;;;;15.15;10.50;;;;;;;9.02;91.99;102875.00;5034827;28;20403;-77
2021/11/20 03:41:39;;;;;;;16.90;11.35;;;;;;;9.02;91.80;102876.78;5034853;28;20038;-77
2021/11/20 03:44:05;;;;;;;16.30;10.85;;;;;;;9.00;91.53;102880.41;5034338;28;20040;-77
2021/11/20 03:46:32;;;;;;;11.68;10.40;;;;;;;9.03;91.58;102868.75;5034606;28;20116;-77
2021/11/20 03:48:58;;;;;;;13.98;10.82;;;;;;;9.08;90.75;102860.56;5034306;28;20113;-78
2021/11/20 03:51:24;;;;;;;13.32;10.98;;;;;;;9.05;91.22;102861.56;5034853;28;20037;-78
2021/11/20 03:53:51;;;;;;;13.60;10.68;;;;;;;9.01;91.45;102844.06;5034272;28;20034;-78
2021/11/20 03:56:17;;;;;;;14.05;10.43;;;;;;;9.06;91.01;102852.69;5034418;28;20041;-78
2021/11/20 03:58:42;;;;;;;13.05;10.95;;;;;;;9.06;91.06;102852.69;5034785;28;20029;-77
2021/11/20 04:01:11;;;;;;;13.32;10.60;;;;;;;9.03;91.30;102854.63;5032766;28;20056;-77
2021/11/20 04:03:39;;;;;;;15.95;11.38;;;;;;;9.02;91.16;102860.84;5034506;28;20485;-77
2021/11/20 04:06:10;;;;;;;15.15;11.48;;;;;;;9.00;91.30;102851.19;5033818;28;20029;-77
2021/11/20 04:08:35;;;;;;;16.23;11.75;;;;;;;8.99;91.43;102852.13;5034209;28;20037;-79
2021/11/20 04:11:01;;;;;;;16.10;11.95;;;;;;;8.99;91.27;102868.06;5032468;28;20107;-77
2021/11/20 04:13:26;;;;;;;14.35;12.45;;;;;;;8.99;91.41;102864.56;5032774;28;20038;-77
2021/11/20 04:15:52;;;;;;;15.25;12.07;;;;;;;8.99;90.95;102868.06;5033362;28;20030;-78
2021/11/20 04:18:18;;;;;;;13.48;11.50;;;;;;;8.98;91.26;102865.47;5033810;28;20037;-76
2021/11/20 04:20:43;;;;;;;14.35;11.95;;;;;;;8.96;91.64;102856.75;5033665;28;20091;-78
2021/11/20 04:23:09;;;;;;;15.13;13.30;;;;;;;8.94;91.64;102866.56;5033204;28;20095;-77
2021/11/20 04:25:36;;;;;;;16.58;13.45;;;;;;;8.93;91.41;102859.56;5033774;28;20124;-77
2021/11/20 04:28:02;;;;;;;16.02;13.70;;;;;;;8.92;90.99;102855.19;5031814;28;20041;-76
2021/11/20 04:30:28;;;;;;;16.88;14.18;;;;;;;8.91;90.98;102841.06;5033875;28;20029;-77
2021/11/20 04:32:54;;;;;;;21.30;13.90;;;;;;;8.91;90.71;102846.38;5031664;28;20060;-77
2021/11/20 04:35:22;;;;;;;18.13;12.70;;;;;;;8.92;90.93;102833.94;5033424;28;20029;-78
2021/11/20 04:37:48;;;;;;;16.52;14.32;;;;;;;8.91;90.81;102829.56;5033530;28;20481;-77
2021/11/20 04:40:15;;;;;;;16.48;13.68;;;;;;;8.94;90.72;102832.06;5032984;28;20116;-78
2021/11/20 04:42:41;;;;;;;21.60;14.27;;;;;;;8.98;90.04;102838.94;5033281;28;20543;-77
2021/11/20 04:45:09;;;;;;;15.63;13.73;;;;;;;9.03;89.28;102839.53;5032951;28;20041;-76
2021/11/20 04:47:35;;;;;;;16.75;13.57;;;;;;;9.05;89.31;102837.69;5031873;28;20485;-77
2021/11/20 04:50:00;;;;;;;15.48;13.85;;;;;;;9.07;88.52;102835.78;5032936;28;20075;-77
2021/11/20 04:52:26;;;;;;;15.23;13.60;;;;;;;9.15;87.59;102838.91;5033270;28;20083;-78
2021/11/20 04:54:52;;;;;;;15.40;13.82;;;;;;;9.19;87.75;102836.94;5032996;28;20110;-78
2021/11/20 04:57:17;;;;;;;16.05;13.65;;;;;;;9.19;87.50;102842.25;5031810;28;20033;-77
2021/11/20 04:59:43;;;;;;;15.07;13.48;;;;;;;9.18;87.92;102843.19;5033043;28;20080;-77
2021/11/20 05:02:09;;;;;;;16.88;15.07;;;;;;;9.13;88.20;102840.78;5031147;28;20033;-79
2021/11/20 05:04:34;;;;;;;16.75;15.15;;;;;;;9.13;87.83;102840.78;5032822;28;20041;-76
2021/11/20 05:07:00;;;;;;;18.13;16.08;;;;;;;9.10;88.22;102842.75;5032346;28;20033;-78
2021/11/20 05:09:25;;;;;;;18.38;16.40;;;;;;;9.07;89.14;102840.25;5033025;28;20120;-76
2021/11/20 05:11:52;;;;;;;19.20;16.70;;;;;;;9.06;88.89;102833.22;5032901;28;20030;-77
2021/11/20 05:14:17;;;;;;;18.75;16.75;;;;;;;9.02;89.58;102826.34;5032146;28;20464;-76
2021/11/20 05:16:42;;;;;;;23.60;18.70;;;;;;;8.97;89.76;102826.59;5031427;28;20109;-77
2021/11/20 05:19:08;;;;;;;27.75;18.80;;;;;;;8.96;90.16;102824.88;5030681;28;20381;-79
2021/11/20 05:21:34;;;;;;;23.17;19.27;;;;;;;8.92;90.14;102826.81;5032168;28;20116;-79
2021/11/20 05:24:00;;;;;;;24.25;18.63;;;;;;;8.93;89.92;102825.91;5032246;28;20057;-79
2021/11/20 05:26:25;;;;;;;26.17;20.33;;;;;;;8.91;90.28;102821.59;5031878;28;20470;-79
2021/11/20 05:29:05;;;;;;;27.95;20.15;;;;;;;8.90;90.59;102817.25;5032464;28;20025;-76
2021/11/20 05:31:35;;;;;;;30.98;21.17;;;;;;;8.87;90.74;102815.59;5032301;28;20033;-77
2021/11/20 05:34:02;;;;;;;29.52;21.65;;;;;;;8.85;90.46;102806.00;5032570;28;20025;-77
2021/11/20 05:36:30;;;;;;;29.80;22.38;;;;;;;8.88;90.55;102811.13;5032718;28;20041;-77
2021/11/20 05:38:58;;;;;;;27.90;20.60;;;;;;;8.86;90.79;102803.25;5032634;28;20116;-77
2021/11/20 05:41:25;;;;;;;28.98;21.80;;;;;;;8.87;90.70;102796.13;5032630;28;20175;-77
2021/11/20 05:43:51;;;;;;;32.20;21.88;;;;;;;8.85;91.12;102796.22;5032306;28;20029;-77
2021/11/20 05:46:20;;;;;;;29.45;22.15;;;;;;;8.82;91.40;102786.66;5031993;28;20041;-76
2021/11/20 05:48:45;;;;;;;28.70;22.85;;;;;;;8.82;90.85;102799.03;5032486;28;20029;-77
2021/11/20 05:51:11;;;;;;;30.98;23.10;;;;;;;8.81;91.45;102794.69;5031839;28;20160;-77
2021/11/20 05:53:37;;;;;;;31.77;23.92;;;;;;;8.81;91.06;102794.69;5032327;28;20487;-77
2021/11/20 05:56:04;;;;;;;33.05;23.83;;;;;;;8.80;91.04;102799.13;5031946;28;20026;-78
2021/11/20 05:58:29;;;;;;;30.65;22.60;;;;;;;8.84;90.85;102791.88;5032156;28;20038;-78
2021/11/20 06:01:00;;;;;;;29.42;22.33;;;;;;;8.85;90.14;102787.41;5031253;28;20030;-78
2021/11/20 06:03:27;;;;;;;28.65;21.83;;;;;;;8.85;90.57;102784.75;5031328;28;20030;-76
2021/11/20 06:05:52;;;;;;;29.85;22.55;;;;;;;8.83;89.91;102777.72;5032289;28;20436;-77
2021/11/20 06:08:20;;;;;;;29.15;22.17;;;;;;;8.83;90.02;102777.72;5031949;28;20034;-78
2021/11/20 06:10:47;;;;;;;32.25;24.23;;;;;;;8.82;90.77;102777.81;5032157;28;20576;-78
2021/11/20 06:13:13;;;;;;;29.92;23.27;;;;;;;8.79;90.97;102770.88;5031740;28;20116;-78
2021/11/20 06:15:40;;;;;;;34.90;22.70;;;;;;;8.78;90.82;102774.47;5032341;28;20033;-77
2021/11/20 06:18:06;;;;;;;30.73;23.92;;;;;;;8.75;90.78;102765.81;5031831;28;20041;-78
2021/11/20 06:20:31;;;;;;;30.80;24.77;;;;;;;8.74;90.31;102759.63;5032263;28;20047;-78
2021/11/20 06:22:57;;;;;;;31.38;24.35;;;;;;;8.74;90.55;102756.97;5032260;28;20358;-78
2021/11/20 06:25:23;;;;;;;35.50;24.65;;;;;;;8.76;90.18;102765.72;5031459;28;20077;-78
2021/11/20 06:27:49;;;;;;;33.03;24.38;;;;;;;8.75;90.08;102760.50;5032076;28;20030;-78
2021/11/20 06:30:18;;;;;;;32.75;25.35;;;;;;;8.73;90.62;102755.28;5031805;28;20041;-78
2021/11/20 06:32:45;;;;;;;31.45;23.13;;;;;;;8.72;90.60;102753.56;5032183;28;20424;-78
2021/11/20 06:35:12;;;;;;;35.03;24.88;;;;;;;8.72;91.08;102750.91;5035360;28;20392;-78
2021/11/20 06:37:42;;;;;;;29.08;22.52;;;;;;;8.73;90.44;102755.28;5035708;28;20034;-79
2021/11/20 06:40:11;;;;;;;29.92;24.00;;;;;;;8.73;90.54;102747.31;5035265;28;20374;-78
2021/11/20 06:42:37;;;;;;;30.20;23.80;;;;;;;8.72;90.88;102755.34;5035384;28;20478;-78
2021/11/20 06:45:06;;;;;;;32.28;22.45;;;;;;;8.71;90.43;102753.63;5035781;28;20033;-78
2021/11/20 06:47:31;;;;;;;31.27;22.85;;;;;;;8.71;90.70;102761.59;5034345;28;20071;-79
2021/11/20 06:49:57;;;;;;;30.17;22.52;;;;;;;8.68;91.16;102754.66;5035520;28;20096;-80
2021/11/20 06:52:23;;;;;;;29.08;21.98;;;;;;;8.69;90.87;102752.84;5034984;28;20048;-77
2021/11/20 06:54:49;;;;;;;38.20;22.98;;;;;;;8.70;91.00;102757.22;5035515;28;20038;-78
2021/11/20 06:57:15;;;;;;;27.92;21.25;;;;;;;8.70;90.96;102751.91;5033889;28;20034;-77
2021/11/20 07:02:13;;;;;;;27.00;20.45;;;;;;;8.70;91.16;102751.91;5035345;28;20041;-79
2021/11/20 07:04:38;;;;;;;27.98;20.80;;;;;;;8.70;90.99;102750.09;5035298;28;20401;-78
2021/11/20 07:07:09;;;;;;;26.85;20.98;;;;;;;8.71;90.72;102749.19;5035323;28;20030;-78
2021/11/20 07:09:35;;;;;;;28.83;21.65;;;;;;;8.73;90.62;102744.66;5034929;28;20033;-79
2021/11/20 07:12:00;;;;;;;27.17;21.08;;;;;;;8.76;90.17;102751.59;5034979;28;20051;-77
2021/11/20 07:14:26;;;;;;;27.58;21.05;;;;;;;8.78;89.83;102741.75;5034708;28;20047;-77
2021/11/20 07:16:52;;;;;;;29.45;20.20;;;;;;;8.77;90.40;102746.19;5035103;28;20095;-78
2021/11/20 07:19:18;;;;;;;28.77;20.58;;;;;;;8.77;90.77;102748.00;5034578;28;20041;-78
2021/11/20 07:21:44;;;;;;;27.80;20.13;;;;;;;8.76;91.02;102746.28;5033589;28;20029;-78
2021/11/20 07:24:14;;;;;;;29.23;20.55;;;;;;;8.76;91.11;102743.63;5034751;28;20041;-78
2021/11/20 07:26:39;;;;;;;28.48;20.67;;;;;;;8.78;90.82;102744.41;5034865;28;20043;-78
2021/11/20 07:29:05;;;;;;;28.63;20.90;;;;;;;8.80;89.98;102738.06;5033750;28;20118;-78
2021/11/20 07:31:30;;;;;;;28.17;19.55;;;;;;;8.81;90.79;102741.59;5033210;28;20136;-78
2021/11/20 07:33:56;;;;;;;29.92;20.42;;;;;;;8.81;90.70;102733.63;5034603;28;20047;-78
2021/11/20 07:36:22;;;;;;;32.83;21.58;;;;;;;8.83;90.74;102731.75;5034128;28;20474;-78
2021/11/20 07:38:52;;;;;;;27.02;20.42;;;;;;;8.83;90.69;102723.78;5034452;28;20041;-78
2021/11/20 07:41:18;;;;;;;27.02;19.63;;;;;;;8.81;91.27;102720.38;5033932;28;20385;-78
2021/11/20 07:43:44;;;;;;;27.15;19.50;;;;;;;8.84;90.50;102722.84;5034235;28;20112;-79
2021/11/20 07:46:10;;;;;;;27.67;19.83;;;;;;;8.86;90.80;102728.09;5034549;28;20034;-78
2021/11/20 07:48:37;;;;;;;28.95;20.58;;;;;;;8.86;90.54;102718.31;5033927;28;20037;-78
2021/11/20 07:51:04;;;;;;;29.75;20.63;;;;;;;8.86;91.00;102723.63;5034363;28;20026;-77
2021/11/20 07:53:29;;;;;;;30.23;21.48;;;;;;;8.87;90.51;102722.69;5034217;28;20110;-80
2021/11/20 07:55:55;;;;;;;28.58;21.42;;;;;;;8.87;90.85;102725.34;5033240;28;20088;-78
2021/11/20 07:58:21;;;;;;;29.75;20.48;;;;;;;8.88;91.02;102716.41;5034004;28;20029;-79
2021/11/20 08:00:47;;;;;;;26.70;20.30;;;;;;;8.89;90.79;102718.16;5034268;28;20060;-78
2021/11/20 08:03:14;;;;;;;29.27;20.23;;;;;;;8.94;90.66;102720.53;5032827;28;20057;-76
2021/11/20 08:05:41;;;;;;;31.05;22.20;;;;;;;8.94;90.87;102717.91;5033993;28;20036;-75
2021/11/20 08:08:06;;;;;;;30.63;22.67;;;;;;;8.96;90.76;102713.38;5032985;28;20033;-77
2021/11/20 08:10:34;;;;;;;33.25;22.40;;;;;;;8.99;90.83;102715.88;5033864;28;20370;-75
2021/11/20 08:12:59;;;;;;;31.08;23.70;;;;;;;9.01;91.04;102708.66;5034083;28;20045;-76
2021/11/20 08:15:26;;;;;;;32.10;23.05;;;;;;;9.13;89.70;102707.13;5033307;28;20030;-77
2021/11/20 08:17:51;;;;;;;38.20;24.83;;;;;;;9.15;90.00;102698.16;5033892;28;20038;-77
2021/11/20 08:20:19;;;;;;;33.22;23.55;;;;;;;9.24;88.84;102693.25;5032243;28;20084;-78
2021/11/20 08:22:44;;;;;;;32.92;24.15;;;;;;;9.27;88.57;102688.66;5033801;28;20119;-76
2021/11/20 08:25:14;;;;;;;33.00;23.73;;;;;;;9.28;89.51;102690.34;5033971;28;20473;-79
2021/11/20 08:27:40;;;;;;;33.30;23.25;;;;;;;9.34;88.62;102686.50;5033376;28;20026;-78
2021/11/20 08:30:09;;;;;;;33.42;23.42;;;;;;;9.42;88.02;102681.63;5033807;28;20038;-76
2021/11/20 08:32:34;;;;;;;32.10;23.33;;;;;;;9.41;88.76;102674.59;5033085;28;20059;-77
2021/11/20 08:35:00;;;;;;;38.10;24.30;;;;;;;9.45;88.49;102673.47;5033415;28;20034;-77
2021/11/20 08:37:27;;;;;;;38.38;25.02;;;;;;;9.47;88.72;102676.03;5033373;28;20484;-76
2021/11/20 08:39:56;;;;;;;31.40;23.25;;;;;;;9.51;88.52;102675.78;5032304;28;20339;-78
2021/11/20 08:42:22;;;;;;;35.50;24.77;;;;;;;9.54;88.08;102674.75;5032946;28;20050;-78
2021/11/20 08:44:47;;;;;;;33.13;24.25;;;;;;;9.53;88.60;102679.19;5033422;28;20069;-75
2021/11/20 08:47:15;;;;;;;33.72;24.13;;;;;;;9.56;88.61;102669.34;5033470;28;20559;-76
2021/11/20 08:49:41;;;;;;;33.85;23.05;;;;;;;9.57;89.08;102671.94;5032927;28;20025;-76
2021/11/20 08:52:08;;;;;;;36.08;24.35;;;;;;;9.60;88.43;102670.88;5033382;28;20029;-76
2021/11/20 08:54:34;;;;;;;33.80;23.25;;;;;;;9.61;88.22;102668.13;5016521;28;20042;-78
2021/11/20 08:57:01;;;;;;;33.92;23.70;;;;;;;9.65;88.39;102669.66;5008739;28;20075;-80
2021/11/20 08:59:30;;;;;;;35.65;23.20;;;;;;;9.63;88.93;102665.38;5010261;28;20030;-79
2021/11/20 09:02:09;;;;;;;35.90;23.83;;;;;;;9.64;88.58;102667.09;5010592;28;20037;-77
2021/11/20 09:04:45;;;;;;;37.08;24.15;;;;;;;9.66;88.17;102671.38;5010283;28;20034;-78
2021/11/20 09:07:25;;;;;;;35.05;22.20;;;;;;;9.71;87.96;102668.47;5010349;28;20355;-78
2021/11/20 09:09:55;;;;;;;32.65;22.42;;;;;;;9.74;87.60;102662.97;5010499;28;20104;-77
2021/11/20 09:12:31;;;;;;;31.80;21.70;;;;;;;9.74;88.05;102655.00;5010400;28;20478;-77
2021/11/20 09:15:01;;;;;;;34.53;22.90;;;;;;;9.72;88.57;102662.22;5010825;28;20382;-78
2021/11/20 09:17:27;;;;;;;32.37;22.70;;;;;;;9.70;88.27;102656.09;5024857;28;20084;-78
2021/11/20 09:19:53;;;;;;;29.52;20.95;;;;;;;9.72;88.14;102656.91;5010048;28;20792;-79
2021/11/20 09:22:19;;;;;;;32.42;22.02;;;;;;;9.74;88.15;102651.50;5010163;28;20108;-77
2021/11/20 09:24:47;;;;;;;36.97;24.10;;;;;;;9.71;88.89;102649.84;5009844;28;20052;-76
2021/11/20 09:27:13;;;;;;;33.50;22.13;;;;;;;9.74;88.28;102640.84;5008997;28;20033;-77
2021/11/20 09:29:40;;;;;;;35.83;23.60;;;;;;;9.77;88.34;102635.34;5009610;28;20410;-76
2021/11/20 09:32:07;;;;;;;32.85;22.35;;;;;;;9.81;87.87;102642.22;5010104;28;20042;-77
2021/11/20 09:34:33;;;;;;;33.63;22.27;;;;;;;9.80;88.20;102644.00;5009701;28;20034;-80
2021/11/20 09:36:59;;;;;;;34.42;22.73;;;;;;;9.79;88.68;102641.44;5010352;28;20113;-80
2021/11/20 09:39:32;;;;;;;35.92;22.38;;;;;;;9.79;88.36;102644.09;5010408;28;20136;-81
2021/11/20 09:42:15;;;;;;;34.05;22.65;;;;;;;9.79;88.37;102644.97;5009804;28;20049;-80
2021/11/20 09:44:47;;;;;;;32.08;21.65;;;;;;;9.78;88.85;102639.72;5009942;28;20037;-80
2021/11/20 09:47:23;;;;;;;33.45;22.25;;;;;;;9.77;88.81;102646.00;5010376;28;20127;-77
2021/11/20 09:49:52;;;;;;;31.77;21.92;;;;;;;9.77;88.89;102648.66;5008520;28;20119;-78
2021/11/20 09:52:19;;;;;;;32.75;21.00;;;;;;;9.76;88.80;102647.78;5010223;28;20505;-77
2021/11/20 09:54:46;;;;;;;29.65;21.27;;;;;;;9.77;88.93;102638.88;5008007;28;20143;-76
2021/11/20 09:57:11;;;;;;;30.63;20.67;;;;;;;9.82;88.66;102639.47;5008527;28;20111;-77
2021/11/20 09:59:45;;;;;;;32.33;20.75;;;;;;;9.83;88.61;102638.50;5009700;28;20065;-78
2021/11/20 10:02:20;;;;;;;28.92;20.95;;;;;;;9.86;88.77;102640.13;5010008;28;20033;-78
2021/11/20 10:04:57;;;;;;;30.27;21.00;;;;;;;9.86;88.79;102632.16;5009391;28;20034;-79
2021/11/20 10:07:29;;;;;;;29.60;21.70;;;;;;;9.82;89.36;102625.28;5011766;28;20038;-77
2021/11/20 10:10:15;;;;;;;31.15;22.23;;;;;;;9.81;89.11;102621.78;5013802;28;20058;-79
2021/11/20 10:12:52;;;;;;;29.92;21.38;;;;;;;9.86;88.41;102625.03;5013564;28;20037;-78
2021/11/20 10:15:36;;;;;;;28.00;22.05;;;;;;;9.88;88.18;102624.94;5013639;28;20030;-80
2021/11/20 10:18:25;;;;;;;29.15;20.58;;;;;;;9.85;88.18;102620.69;5013786;28;20057;-79
2021/11/20 10:21:09;;;;;;;33.42;21.33;;;;;;;9.86;88.47;102621.53;5013434;28;20116;-79
2021/11/20 10:24:13;;;;;;;27.17;20.25;;;;;;;9.85;88.54;102615.34;5013027;28;20076;-78
2021/11/20 10:26:57;;;;;;;30.38;22.17;;;;;;;9.87;88.89;102616.09;5012552;28;20143;-78
2021/11/20 10:29:54;;;;;;;27.90;20.92;;;;;;;9.88;88.82;102620.50;5012087;28;20429;-78
2021/11/20 10:32:47;;;;;;;27.50;20.63;;;;;;;9.93;88.97;102624.66;5014014;28;20080;-76
2021/11/20 10:35:15;;;;;;;22.50;16.15;;;;;;;9.96;88.80;102619.19;5013757;28;20490;-79
2021/11/20 10:38:02;;;;;;;21.58;15.00;;;;;;;9.99;88.42;102619.00;5013554;28;20132;-79
2021/11/20 10:40:32;;;;;;;20.23;15.00;;;;;;;10.01;88.60;102615.28;5013938;28;20040;-79
2021/11/20 10:43:03;;;;;;;16.90;13.65;;;;;;;10.03;88.17;102616.06;5013864;28;20034;-79
2021/11/20 10:45:42;;;;;;;17.25;11.95;;;;;;;10.05;88.11;102608.00;5013558;28;20033;-80
2021/11/20 10:48:28;;;;;;;14.82;10.27;;;;;;;10.05;87.43;102611.50;5013288;28;20038;-79
2021/11/20 10:51:14;;;;;;;14.00;9.82;;;;;;;10.09;87.80;102608.66;5013073;28;20619;-79
2021/11/20 10:54:07;;;;;;;16.05;10.75;;;;;;;10.09;87.35;102600.66;5012751;28;20037;-80
2021/11/20 10:57:04;;;;;;;11.60;8.77;;;;;;;10.07;87.35;102585.66;5013297;28;20506;-77
2021/11/20 11:00:03;;;;;;;10.20;7.70;;;;;;;10.12;86.90;102580.06;4982436;28;20038;-81
2021/11/20 11:02:47;;;;;;;9.88;7.80;;;;;;;10.14;86.39;102575.50;5012422;28;20494;-77
2021/11/20 11:05:17;;;;;;;11.48;8.38;;;;;;;10.12;86.58;102569.44;5012671;28;20030;-80
2021/11/20 11:07:56;;;;;;;12.55;9.15;;;;;;;10.10;87.16;102560.69;5012327;28;20129;-80
2021/11/20 11:10:59;;;;;;;13.80;9.30;;;;;;;10.11;87.70;102556.22;5012778;28;20056;-79
2021/11/20 11:13:49;;;;;;;12.07;8.70;;;;;;;10.12;87.51;102552.59;4951670;29;20154;-80
2021/11/20 11:16:33;;;;;;;12.95;9.30;;;;;;;10.13;87.51;102554.31;5010810;28;20053;-78
2021/11/20 11:19:23;;;;;;;11.50;8.45;;;;;;;10.16;87.93;102546.16;5026066;28;20099;-77
2021/11/20 11:21:55;;;;;;;10.90;8.00;;;;;;;10.17;87.15;102534.56;5022605;28;20033;-77
2021/11/20 11:24:54;;;;;;;9.90;8.23;;;;;;;10.22;86.56;102538.63;5012654;28;20034;-76
2021/11/20 11:27:48;;;;;;;13.75;8.60;;;;;;;10.19;87.08;102533.50;5027289;28;20037;-78
2021/11/20 11:30:58;;;;;;;15.50;7.53;;;;;;;10.22;86.93;102522.66;5031170;28;20033;-78
2021/11/20 11:33:25;;;;;;;12.10;8.50;;;;;;;10.20;87.60;102523.75;5012668;28;20056;-77
2021/11/20 11:36:11;;;;;;;13.13;8.13;;;;;;;10.21;87.09;102520.97;5018093;28;20034;-77